Time;durP1;ratioP1;P1;durP2;ratioP2;P2;SDS_P1;SDS_P2;PMS_P1;PMS_P2;Temp;Humidity;BMP_temperature;BMP_pressure;BME280_temperature;BME280_humidity;BME280_pressure;Samples;Min_cycle;Max_cycle;Signal;HPM_P1;HPM_P2
2022/01/20 00:00:53;;;;;;;2.90;2.60;;;9.00;64.80;8.90;96856.00;;;;5037246;28;20645;-82
2022/01/20 00:03:29;;;;;;;3.30;3.00;;;9.00;65.10;8.90;96861.00;;;;5037272;28;20247;-82
2022/01/20 00:08:52;;;;;;;2.50;2.30;;;8.90;64.70;8.90;96856.00;;;;5023320;28;20203;-82
2022/01/20 00:27:54;;;;;;;2.50;2.30;;;8.80;65.00;8.80;96852.00;;;;5041802;28;20247;-82
2022/01/20 00:30:35;;;;;;;2.90;2.60;;;8.80;64.90;8.80;96855.00;;;;5038174;28;20259;-81
2022/01/20 00:33:19;;;;;;;2.93;2.37;;;8.80;64.80;8.80;96855.00;;;;5071328;28;20203;-82
2022/01/20 00:38:31;;;;;;;2.40;2.00;;;8.80;64.70;8.80;96863.00;;;;5036180;28;20216;-82
2022/01/20 00:40:59;;;;;;;2.40;2.20;;;8.80;64.80;8.70;96867.00;;;;5035911;28;20221;-82
2022/01/20 00:43:26;;;;;;;2.10;1.90;;;8.80;64.70;8.70;96862.00;;;;5046978;28;20284;-82
2022/01/20 00:45:53;;;;;;;2.53;2.33;;;8.80;64.40;8.70;96865.00;;;;5055270;28;20799;-82
2022/01/20 00:48:22;;;;;;;2.53;2.33;;;8.80;64.70;8.70;96861.00;;;;5046039;28;20221;-82
2022/01/20 00:50:50;;;;;;;3.03;2.73;;;8.80;64.40;8.70;96870.00;;;;5056513;28;20891;-82
2022/01/20 00:53:18;;;;;;;2.40;2.20;;;8.70;64.50;8.70;96870.00;;;;5055313;28;20718;-82
2022/01/20 00:55:45;;;;;;;2.80;2.57;;;8.70;64.50;8.70;96874.00;;;;5055781;28;20199;-82
2022/01/20 00:58:12;;;;;;;2.10;1.90;;;8.70;64.50;8.70;96857.00;;;;5046908;28;20197;-82
2022/01/20 01:00:39;;;;;;;2.83;1.97;;;8.70;64.60;8.70;96866.00;;;;5036113;28;20213;-82
2022/01/20 01:03:06;;;;;;;2.33;2.13;;;8.70;64.50;8.70;96866.00;;;;5036119;28;20198;-82
2022/01/20 01:05:38;;;;;;;2.50;2.30;;;8.70;64.40;8.70;96857.00;;;;5035035;28;20197;-82
2022/01/20 01:08:07;;;;;;;2.03;1.90;;;8.80;64.70;8.70;96862.00;;;;5054936;28;20510;-83
2022/01/20 01:10:37;;;;;;;2.10;1.90;;;8.70;64.10;8.80;96869.00;;;;5061262;28;20284;-82
2022/01/20 01:13:09;;;;;;;1.97;1.87;;;8.70;64.40;8.80;96868.00;;;;5044527;28;20220;-82
2022/01/20 01:15:41;;;;;;;2.40;2.20;;;8.80;64.50;8.80;96877.00;;;;5045361;28;20214;-82
2022/01/20 01:21:27;;;;;;;1.80;1.70;;;8.80;64.50;8.80;96872.00;;;;5036537;28;20212;-82
2022/01/20 01:23:57;;;;;;;2.03;1.90;;;8.80;64.10;8.80;96873.00;;;;5042051;28;20220;-82
2022/01/20 01:26:27;;;;;;;1.63;1.53;;;8.80;64.20;8.80;96869.00;;;;5038539;28;20558;-83
2022/01/20 01:28:56;;;;;;;2.10;2.00;;;8.80;64.50;8.80;96866.00;;;;5040663;28;20201;-81
2022/01/20 01:34:10;;;;;;;3.47;2.33;;;8.80;64.20;8.70;96869.00;;;;5041521;28;20217;-82
2022/01/20 01:36:51;;;;;;;2.60;2.40;;;8.80;64.10;8.70;96866.00;;;;5036461;28;20576;-82
2022/01/20 01:39:20;;;;;;;2.30;2.10;;;8.80;64.40;8.70;96872.00;;;;5037254;28;20208;-81
2022/01/20 01:41:47;;;;;;;1.87;1.57;;;8.80;64.10;8.70;96854.00;;;;5037122;28;20221;-82
2022/01/20 01:44:21;;;;;;;2.17;1.97;;;8.70;64.40;8.70;96860.00;;;;5051841;28;20196;-82
2022/01/20 01:46:49;;;;;;;1.97;1.87;;;8.80;64.40;8.70;96858.00;;;;5056778;28;20203;-82
2022/01/20 01:49:18;;;;;;;2.30;2.10;;;8.70;64.20;8.70;96862.00;;;;5039963;28;20208;-82
2022/01/20 01:51:45;;;;;;;1.97;1.77;;;8.70;64.10;8.70;96854.00;;;;5048552;28;20217;-82
2022/01/20 01:54:13;;;;;;;1.80;1.60;;;8.70;64.30;8.70;96855.00;;;;5039841;28;20224;-82
2022/01/20 01:56:42;;;;;;;2.13;1.93;;;8.70;64.20;8.70;96847.00;;;;5047387;28;20197;-82
2022/01/20 01:59:09;;;;;;;2.13;1.90;;;8.70;64.40;8.70;96868.00;;;;5036732;28;20221;-82
2022/01/20 02:01:38;;;;;;;2.43;2.23;;;8.70;64.50;8.70;96855.00;;;;5046757;28;20729;-82
2022/01/20 02:04:14;;;;;;;2.10;2.00;;;8.70;64.30;8.70;96854.00;;;;5041597;28;20198;-82
2022/01/20 02:07:18;;;;;;;1.77;1.67;;;8.70;64.20;8.70;96858.00;;;;5047358;28;20193;-81
2022/01/20 02:18:25;;;;;;;1.87;1.77;;;8.70;64.50;8.70;96834.00;;;;5048152;28;20207;-82
2022/01/20 02:20:54;;;;;;;2.17;1.93;;;8.70;64.40;8.70;96844.00;;;;5052029;28;20223;-82
2022/01/20 02:23:21;;;;;;;1.80;1.70;;;8.70;64.40;8.70;96837.00;;;;5035127;28;20566;-82
2022/01/20 02:25:49;;;;;;;1.93;1.80;;;8.70;64.30;8.70;96845.00;;;;5034926;28;20217;-82
2022/01/20 02:28:16;;;;;;;2.00;1.80;;;8.70;64.40;8.70;96850.00;;;;5045162;28;20208;-82
2022/01/20 02:30:44;;;;;;;2.07;1.60;;;8.70;64.40;8.70;96851.00;;;;5037886;28;20232;-82
2022/01/20 02:33:16;;;;;;;1.50;1.40;;;8.70;64.60;8.70;96840.00;;;;5047968;28;20232;-82
2022/01/20 02:35:46;;;;;;;1.77;1.67;;;8.70;64.40;8.70;96840.00;;;;5034641;28;20197;-82
2022/01/20 02:38:20;;;;;;;1.70;1.60;;;8.70;64.10;8.70;96831.00;;;;5057002;28;20594;-82
2022/01/20 02:46:22;;;;;;;1.60;1.50;;;8.70;64.70;8.70;96826.00;;;;5065032;28;20200;-83
2022/01/20 02:48:49;;;;;;;1.80;1.70;;;8.70;64.60;8.70;96814.00;;;;5053624;28;20291;-83
2022/01/20 02:51:16;;;;;;;1.70;1.60;;;8.70;65.20;8.70;96829.00;;;;5054787;28;20246;-82
2022/01/20 02:53:45;;;;;;;1.80;1.70;;;8.70;64.30;8.60;96813.00;;;;5043484;28;20228;-83
2022/01/20 02:56:12;;;;;;;1.83;1.73;;;8.70;64.40;8.60;96811.00;;;;5034552;28;20651;-82
2022/01/20 02:58:49;;;;;;;;;;;;;;;;;;;;;
2022/01/20 03:01:17;;;;;;;1.57;1.47;;;8.70;64.50;8.70;96801.00;;;;5043567;28;20228;-81
2022/01/20 03:03:44;;;;;;;1.83;1.73;;;8.70;64.80;8.60;96810.00;;;;5034041;28;21076;-82
2022/01/20 03:06:11;;;;;;;1.50;1.40;;;8.70;64.80;8.60;96805.00;;;;5040034;28;20643;-82
2022/01/20 03:08:39;;;;;;;1.90;1.80;;;8.70;64.90;8.60;96804.00;;;;5054403;28;20208;-83
2022/01/20 03:11:08;;;;;;;1.77;1.67;;;8.70;65.00;8.60;96812.00;;;;5046237;28;20220;-82
2022/01/20 03:13:35;;;;;;;1.80;1.70;;;8.60;65.00;8.50;96800.00;;;;5043166;28;20222;-82
2022/01/20 03:16:02;;;;;;;1.87;1.77;;;8.60;65.20;8.50;96801.00;;;;5061475;28;20211;-82
2022/01/20 03:18:29;;;;;;;1.57;1.47;;;8.60;65.30;8.50;96800.00;;;;5043679;28;20193;-82
2022/01/20 03:20:56;;;;;;;1.83;1.73;;;8.50;65.30;8.40;96800.00;;;;5033253;28;20220;-83
2022/01/20 03:23:23;;;;;;;2.37;2.17;;;8.60;65.50;8.40;96805.00;;;;5038832;28;20193;-83
2022/01/20 03:25:49;;;;;;;1.97;1.77;;;8.50;65.40;8.40;96813.00;;;;5048340;28;20205;-82
2022/01/20 03:28:18;;;;;;;2.00;1.90;;;8.50;65.60;8.40;96821.00;;;;5047048;28;20223;-82
2022/01/20 03:30:45;;;;;;;2.07;1.90;;;8.50;65.90;8.40;96813.00;;;;5051653;28;20231;-81
2022/01/20 03:33:12;;;;;;;2.23;1.90;;;8.50;66.20;8.40;96819.00;;;;5072174;28;20222;-81
2022/01/20 03:35:40;;;;;;;2.10;1.90;;;8.40;66.40;8.30;96816.00;;;;5072798;28;20203;-80
2022/01/20 03:38:07;;;;;;;2.20;2.00;;;8.40;66.70;8.30;96824.00;;;;5071982;28;20214;-80
2022/01/20 03:40:34;;;;;;;2.10;1.70;;;8.40;66.80;8.20;96826.00;;;;5073137;28;20266;-81
2022/01/20 03:43:02;;;;;;;1.80;1.70;;;8.30;67.10;8.20;96824.00;;;;5064771;28;20201;-80
2022/01/20 03:45:30;;;;;;;2.00;1.90;;;8.30;67.30;8.10;96821.00;;;;5032013;28;20207;-80
2022/01/20 03:48:06;;;;;;;2.30;2.10;;;8.20;67.60;8.00;96816.00;;;;5033012;28;20197;-80
2022/01/20 03:53:18;;;;;;;2.80;2.03;;;8.10;67.90;7.90;96833.00;;;;5032874;28;20209;-80
2022/01/20 03:55:45;;;;;;;2.13;2.00;;;8.10;68.20;7.80;96824.00;;;;5032654;28;20545;-81
2022/01/20 03:58:12;;;;;;;2.63;2.03;;;8.00;68.20;7.80;96831.00;;;;5043307;28;20197;-82
2022/01/20 04:00:43;;;;;;;1.90;1.73;;;7.90;68.30;7.70;96826.00;;;;5051115;28;20223;-81
2022/01/20 04:03:10;;;;;;;2.30;2.10;;;7.80;68.50;7.70;96837.00;;;;5051784;28;20235;-81
2022/01/20 04:05:41;;;;;;;3.23;2.10;;;7.80;68.80;7.70;96833.00;;;;5050703;28;20207;-82
2022/01/20 04:08:08;;;;;;;1.97;1.87;;;7.70;69.00;7.60;96833.00;;;;5051712;28;20279;-83
2022/01/20 04:10:35;;;;;;;2.40;2.20;;;7.70;69.20;7.50;96826.00;;;;5052298;28;20676;-80
2022/01/20 04:13:02;;;;;;;2.30;2.10;;;7.60;69.40;7.50;96831.00;;;;5051249;28;20687;-84
2022/01/20 04:15:37;;;;;;;2.17;2.07;;;7.60;69.50;7.40;96822.00;;;;5044883;28;20677;-82
2022/01/20 04:18:07;;;;;;;2.40;2.20;;;7.50;69.90;7.30;96818.00;;;;5032334;28;20181;-83
2022/01/20 04:20:34;;;;;;;1.87;1.77;;;7.50;69.90;7.20;96818.00;;;;5031881;28;20207;-84
2022/01/20 04:23:01;;;;;;;2.20;2.10;;;7.40;70.20;7.20;96815.00;;;;5044407;28;20200;-85
2022/01/20 04:25:29;;;;;;;2.37;2.17;;;7.30;70.30;7.10;96812.00;;;;5056406;28;20201;-83
2022/01/20 04:27:56;;;;;;;2.27;2.10;;;7.20;70.50;7.10;96803.00;;;;5051863;28;20204;-83
2022/01/20 04:30:23;;;;;;;2.50;2.30;;;7.20;71.20;7.00;96809.00;;;;5051331;28;20713;-84
2022/01/20 04:32:50;;;;;;;2.63;2.43;;;7.10;71.30;6.90;96804.00;;;;5043290;28;20193;-84
2022/01/20 04:35:20;;;;;;;2.50;2.30;;;7.10;71.60;6.90;96812.00;;;;5054154;28;20224;-84
2022/01/20 04:37:49;;;;;;;2.97;2.67;;;7.00;72.20;6.90;96814.00;;;;5055255;28;20207;-83
2022/01/20 04:40:16;;;;;;;2.57;2.37;;;7.00;72.30;6.80;96810.00;;;;5054993;28;20199;-83
2022/01/20 04:42:46;;;;;;;2.60;2.40;;;6.90;73.20;6.80;96815.00;;;;5055173;28;20189;-85
2022/01/20 04:45:18;;;;;;;2.73;2.53;;;6.90;73.30;6.70;96802.00;;;;5053985;28;20204;-82
2022/01/20 04:47:52;;;;;;;2.50;2.30;;;6.90;73.30;6.70;96808.00;;;;5054554;28;20311;-83
2022/01/20 04:58:35;;;;;;;2.20;2.00;;;6.80;74.20;6.60;96817.00;;;;5045988;28;20243;-83
2022/01/20 05:01:03;;;;;;;2.60;2.40;;;6.80;74.20;6.60;96812.00;;;;5061501;28;20235;-84
2022/01/20 05:03:30;;;;;;;2.93;2.73;;;6.80;74.10;6.60;96811.00;;;;5050404;28;20605;-83
2022/01/20 05:05:59;;;;;;;3.00;2.77;;;6.70;74.50;6.60;96813.00;;;;5054689;28;20199;-83
2022/01/20 05:08:28;;;;;;;2.60;2.40;;;6.70;74.60;6.60;96807.00;;;;5054897;28;20560;-83
2022/01/20 05:10:58;;;;;;;3.07;2.80;;;6.70;74.70;6.70;96813.00;;;;5054852;28;20233;-83
2022/01/20 05:13:34;;;;;;;2.80;2.60;;;6.70;74.90;6.70;96801.00;;;;5054033;28;20181;-83
2022/01/20 05:16:02;;;;;;;2.40;2.20;;;6.80;75.00;6.70;96807.00;;;;5041940;28;20208;-84
2022/01/20 05:18:29;;;;;;;2.47;2.30;;;6.80;75.40;6.70;96793.00;;;;5034750;28;20200;-83
2022/01/20 05:20:58;;;;;;;2.47;2.27;;;6.80;75.60;6.70;96807.00;;;;5041774;28;20209;-84
2022/01/20 05:23:25;;;;;;;2.50;2.30;;;6.80;75.30;6.70;96804.00;;;;5054879;28;20191;-83
2022/01/20 05:25:52;;;;;;;2.30;2.20;;;6.80;75.30;6.70;96807.00;;;;5056812;28;20193;-82
2022/01/20 05:28:19;;;;;;;2.37;2.17;;;6.80;75.30;6.70;96796.00;;;;5058709;28;20208;-84
2022/01/20 05:30:46;;;;;;;1.90;1.80;;;6.80;75.40;6.70;96806.00;;;;5053078;28;20221;-83
2022/01/20 05:33:14;;;;;;;2.20;2.10;;;6.80;75.40;6.70;96799.00;;;;5051493;28;20208;-83
2022/01/20 05:35:41;;;;;;;2.53;2.33;;;6.70;75.30;6.70;96793.00;;;;5034240;28;20227;-84
2022/01/20 05:38:10;;;;;;;2.00;1.90;;;6.70;75.50;6.60;96794.00;;;;5043273;28;20206;-84
2022/01/20 05:40:37;;;;;;;2.17;2.07;;;6.70;75.80;6.60;96792.00;;;;5036243;28;20344;-83
2022/01/20 05:43:04;;;;;;;2.57;2.37;;;6.70;75.60;6.70;96802.00;;;;5052986;28;20224;-82
2022/01/20 05:45:31;;;;;;;2.50;2.30;;;6.70;75.80;6.70;96800.00;;;;5040560;28;20287;-83
2022/01/20 05:48:09;;;;;;;2.60;2.40;;;6.70;75.90;6.60;96799.00;;;;5054058;28;20196;-83
2022/01/20 05:50:36;;;;;;;2.70;2.50;;;6.70;76.10;6.70;96805.00;;;;5048803;28;20231;-83
2022/01/20 05:53:05;;;;;;;2.33;2.13;;;6.70;76.40;6.70;96806.00;;;;5051401;28;20193;-83
2022/01/20 05:55:34;;;;;;;2.77;2.53;;;6.70;76.50;6.70;96805.00;;;;5051306;28;20224;-83
2022/01/20 05:58:02;;;;;;;2.47;2.27;;;6.80;76.50;6.70;96798.00;;;;5051085;28;20193;-83
2022/01/20 06:00:29;;;;;;;2.30;2.10;;;6.80;76.60;6.70;96796.00;;;;5052333;28;20192;-83
2022/01/20 06:05:41;;;;;;;2.57;2.10;;;6.80;76.80;6.70;96802.00;;;;5052077;28;20740;-83
2022/01/20 06:08:10;;;;;;;2.50;2.30;;;6.80;77.00;6.70;96800.00;;;;5049376;28;20192;-83
2022/01/20 06:10:39;;;;;;;2.70;2.50;;;6.80;76.90;6.70;96796.00;;;;5043876;28;20213;-83
2022/01/20 06:13:06;;;;;;;2.10;2.00;;;6.80;76.80;6.70;96801.00;;;;5048518;28;20193;-83
2022/01/20 06:15:33;;;;;;;2.50;2.30;;;6.80;77.20;6.70;96810.00;;;;5053309;28;20228;-82
2022/01/20 06:18:01;;;;;;;2.27;2.07;;;6.70;77.00;6.80;96806.00;;;;5037486;28;20281;-82
2022/01/20 06:20:29;;;;;;;2.67;2.47;;;6.90;77.30;6.80;96805.00;;;;5033499;28;20202;-83
2022/01/20 06:22:56;;;;;;;2.83;2.37;;;6.90;77.20;6.80;96816.00;;;;5047541;28;20204;-83
2022/01/20 06:25:24;;;;;;;2.13;2.00;;;6.90;77.00;6.80;96819.00;;;;5042066;28;20551;-83
2022/01/20 06:27:52;;;;;;;2.30;2.20;;;6.90;77.50;6.80;96818.00;;;;5041729;28;20201;-83
2022/01/20 06:30:20;;;;;;;2.50;2.30;;;6.90;77.30;6.80;96823.00;;;;5032953;28;20216;-83
2022/01/20 06:32:47;;;;;;;2.50;2.30;;;6.90;77.30;6.80;96822.00;;;;5045238;28;20568;-83
2022/01/20 06:35:14;;;;;;;3.50;2.20;;;7.00;77.60;6.80;96810.00;;;;5052577;28;20232;-83
2022/01/20 06:37:41;;;;;;;2.63;2.43;;;7.00;77.40;6.80;96807.00;;;;5044957;28;20193;-83
2022/01/20 06:40:10;;;;;;;2.07;1.97;;;6.90;77.50;6.90;96810.00;;;;5033220;28;20201;-83
2022/01/20 06:42:37;;;;;;;2.17;2.00;;;7.00;77.60;6.90;96809.00;;;;5039230;28;20217;-83
2022/01/20 06:45:09;;;;;;;5.87;2.10;;;7.00;77.60;6.90;96806.00;;;;5046229;28;20205;-83
2022/01/20 06:47:37;;;;;;;2.20;2.00;;;7.00;77.60;7.00;96810.00;;;;5032477;28;20181;-83
2022/01/20 06:50:08;;;;;;;2.50;2.30;;;7.00;77.40;7.00;96808.00;;;;5038156;28;20204;-82
2022/01/20 06:52:35;;;;;;;2.30;2.10;;;7.00;77.60;7.00;96817.00;;;;5053356;28;20229;-83
2022/01/20 06:55:05;;;;;;;4.53;2.20;;;7.10;77.70;7.00;96811.00;;;;5046432;28;20225;-83
2022/01/20 06:57:32;;;;;;;1.87;1.77;;;7.10;78.30;7.00;96812.00;;;;5039964;28;20201;-83
2022/01/20 06:59:59;;;;;;;2.07;1.93;;;7.10;77.60;7.10;96809.00;;;;5044702;28;20194;-83
2022/01/20 07:02:28;;;;;;;2.87;2.50;;;7.10;77.70;7.10;96805.00;;;;5043518;28;20216;-82
2022/01/20 07:04:54;;;;;;;2.53;2.33;;;7.10;77.50;7.10;96792.00;;;;5032971;28;20216;-82
2022/01/20 07:07:23;;;;;;;3.10;2.90;;;7.10;78.30;7.10;96797.00;;;;5046612;28;20280;-83
2022/01/20 07:09:50;;;;;;;2.67;2.47;;;7.10;77.40;7.10;96795.00;;;;5047902;28;20193;-82
2022/01/20 07:12:17;;;;;;;2.60;2.40;;;7.10;77.30;7.10;96810.00;;;;5034960;28;20607;-83
2022/01/20 07:14:44;;;;;;;2.70;2.50;;;7.20;77.50;7.20;96811.00;;;;5041385;28;20232;-85
2022/01/20 07:17:11;;;;;;;2.93;2.50;;;7.20;77.40;7.20;96816.00;;;;5040685;28;20571;-83
2022/01/20 07:19:39;;;;;;;2.27;2.17;;;7.20;77.30;7.20;96821.00;;;;5049144;28;20200;-85
2022/01/20 07:22:06;;;;;;;2.77;2.57;;;7.20;77.40;7.20;96821.00;;;;5041417;28;20223;-88
2022/01/20 07:24:33;;;;;;;2.60;2.40;;;7.20;77.40;7.20;96823.00;;;;5038601;28;20654;-82
2022/01/20 07:27:00;;;;;;;2.40;2.20;;;7.30;77.40;7.20;96816.00;;;;5039749;28;20200;-83
2022/01/20 07:29:28;;;;;;;2.43;2.23;;;7.20;77.30;7.30;96821.00;;;;5040931;28;20201;-82
2022/01/20 07:31:55;;;;;;;2.03;1.93;;;7.30;77.30;7.30;96830.00;;;;5048541;28;20216;-82
2022/01/20 07:34:22;;;;;;;2.27;2.17;;;7.30;77.40;7.30;96831.00;;;;5051374;28;20232;-85
2022/01/20 07:36:51;;;;;;;2.07;1.97;;;7.20;77.20;7.30;96835.00;;;;5059207;28;20653;-83
2022/01/20 07:39:18;;;;;;;2.20;2.10;;;7.30;77.30;7.40;96836.00;;;;5039415;28;20666;-83
2022/01/20 07:41:45;;;;;;;2.50;2.30;;;7.30;77.10;7.40;96847.00;;;;5043284;28;20213;-82
2022/01/20 07:44:12;;;;;;;2.50;2.30;;;7.40;77.10;7.40;96839.00;;;;5051607;28;20495;-83
2022/01/20 07:46:39;;;;;;;2.70;2.50;;;7.40;77.10;7.40;96845.00;;;;5049335;28;20212;-83
2022/01/20 07:49:06;;;;;;;2.20;2.10;;;7.40;77.20;7.50;96847.00;;;;5042259;28;20200;-83
2022/01/20 07:51:33;;;;;;;2.40;2.20;;;7.40;77.10;7.50;96848.00;;;;5044361;28;20209;-83
2022/01/20 07:54:05;;;;;;;2.40;2.20;;;7.40;76.90;7.50;96851.00;;;;5036699;28;20201;-83
2022/01/20 07:56:32;;;;;;;2.17;1.97;;;7.50;76.90;7.50;96837.00;;;;5058905;28;20286;-83
2022/01/20 07:58:59;;;;;;;2.40;2.30;;;7.50;77.00;7.50;96848.00;;;;5049464;28;20203;-84
2022/01/20 08:01:26;;;;;;;2.60;2.40;;;7.50;76.80;7.60;96841.00;;;;5038241;28;20216;-83
2022/01/20 08:03:54;;;;;;;2.33;2.13;;;7.50;76.90;7.60;96845.00;;;;5045076;28;20658;-83
2022/01/20 08:06:22;;;;;;;1.83;1.73;;;7.50;76.80;7.60;96868.00;;;;5040318;28;20200;-82
2022/01/20 08:08:51;;;;;;;2.17;2.07;;;7.50;76.80;7.60;96863.00;;;;5042416;28;20198;-83
2022/01/20 08:11:21;;;;;;;2.23;2.07;;;7.50;76.80;7.70;96875.00;;;;5039868;28;20643;-83
2022/01/20 08:13:48;;;;;;;2.60;2.40;;;7.60;77.00;7.60;96865.00;;;;5046950;28;20623;-82
2022/01/20 08:16:15;;;;;;;2.43;2.23;;;7.60;76.90;7.70;96864.00;;;;5044124;28;20216;-85
2022/01/20 08:18:42;;;;;;;2.43;2.23;;;7.60;77.00;7.70;96851.00;;;;5039708;28;20244;-83
2022/01/20 08:21:09;;;;;;;2.70;2.03;;;7.60;77.00;7.70;96871.00;;;;5043592;28;20219;-83
2022/01/20 08:23:36;;;;;;;3.13;2.77;;;7.60;76.90;7.70;96877.00;;;;5047354;28;20200;-82
2022/01/20 08:26:03;;;;;;;2.80;2.60;;;7.70;77.60;7.80;96878.00;;;;5055044;28;20193;-84
2022/01/20 08:28:32;;;;;;;2.40;2.20;;;7.70;76.80;7.80;96880.00;;;;5048184;28;20196;-81
2022/01/20 08:31:02;;;;;;;2.20;2.10;;;8.10;77.10;7.80;96894.00;;;;5055061;28;20221;-83
2022/01/20 08:33:29;;;;;;;2.17;2.00;;;7.70;76.60;7.80;96883.00;;;;5052523;28;20287;-83
2022/01/20 08:35:56;;;;;;;2.40;2.13;;;7.70;76.60;7.80;96873.00;;;;5039010;28;20217;-83
2022/01/20 08:38:23;;;;;;;2.80;2.60;;;7.80;76.60;7.80;96874.00;;;;5036213;28;20292;-82
2022/01/20 08:40:53;;;;;;;2.30;2.10;;;7.80;76.70;7.80;96878.00;;;;5045684;28;20217;-82
2022/01/20 08:43:21;;;;;;;1.97;1.87;;;7.80;76.60;7.90;96896.00;;;;5043344;28;20663;-83
2022/01/20 08:45:49;;;;;;;2.37;2.17;;;7.80;76.60;7.90;96902.00;;;;5046500;28;20662;-83
2022/01/20 08:48:16;;;;;;;1.80;1.70;;;7.80;76.40;7.80;96905.00;;;;5051325;28;20199;-86
2022/01/20 08:50:45;;;;;;;2.20;2.03;;;8.00;76.60;7.80;96915.00;;;;5036840;28;20213;-82
2022/01/20 08:53:13;;;;;;;2.17;2.00;;;7.80;76.50;7.90;96903.00;;;;5038441;28;20202;-84
2022/01/20 08:55:40;;;;;;;1.90;1.80;;;7.80;76.40;7.80;96903.00;;;;5047494;28;20225;-83
2022/01/20 08:58:07;;;;;;;2.30;2.10;;;7.80;76.40;7.80;96908.00;;;;5045938;28;20197;-84
2022/01/20 09:00:36;;;;;;;2.17;2.07;;;7.80;76.50;7.90;96919.00;;;;5048084;28;20247;-84
2022/01/20 09:03:06;;;;;;;2.20;2.00;;;7.80;76.60;7.90;96907.00;;;;5046600;28;20219;-83
2022/01/20 09:05:33;;;;;;;2.10;2.00;;;7.90;76.60;7.90;96904.00;;;;5046478;28;20547;-84
2022/01/20 09:08:02;;;;;;;2.80;2.60;;;7.80;76.60;7.90;96926.00;;;;5047820;28;20219;-84
2022/01/20 09:10:37;;;;;;;2.23;2.10;;;7.80;76.70;7.90;96912.00;;;;5051497;28;20280;-84
2022/01/20 09:15:50;;;;;;;1.97;1.87;;;7.90;77.10;8.00;96910.00;;;;5032352;28;20227;-84
2022/01/20 09:18:19;;;;;;;2.10;2.00;;;7.90;77.20;8.00;96902.00;;;;5045846;28;20196;-84
2022/01/20 09:20:46;;;;;;;2.40;2.20;;;7.90;78.00;8.10;96895.00;;;;5047855;28;20214;-83
2022/01/20 09:23:13;;;;;;;3.17;2.47;;;8.00;77.50;8.10;96897.00;;;;5051311;28;20205;-84
2022/01/20 09:25:49;;;;;;;2.30;2.10;;;8.00;77.70;8.20;96916.00;;;;5050020;28;20228;-83
2022/01/20 09:28:17;;;;;;;2.00;1.90;;;8.00;77.90;8.30;96913.00;;;;5052514;28;20196;-84
2022/01/20 09:30:46;;;;;;;4.67;4.27;;;8.10;77.90;8.30;96912.00;;;;5051920;28;20224;-82
2022/01/20 09:33:17;;;;;;;5.80;5.20;;;8.10;77.90;8.40;96917.00;;;;5049788;28;20295;-82
2022/01/20 09:35:46;;;;;;;5.17;4.70;;;8.30;78.00;8.60;96926.00;;;;5049826;28;20228;-83
2022/01/20 09:38:17;;;;;;;3.37;3.07;;;8.30;77.90;8.60;96916.00;;;;5049759;28;20242;-85
2022/01/20 09:40:44;;;;;;;2.30;2.10;;;8.40;78.10;8.70;96923.00;;;;5050630;28;20228;-82
2022/01/20 09:43:14;;;;;;;2.53;2.33;;;8.40;78.00;8.80;96907.00;;;;5049168;28;20492;-82
2022/01/20 09:45:42;;;;;;;1.93;1.83;;;8.50;77.70;8.90;96921.00;;;;5050488;28;20205;-83
2022/01/20 09:48:11;;;;;;;1.93;1.83;;;8.60;77.50;8.90;96912.00;;;;5050889;28;20288;-85
2022/01/20 09:50:39;;;;;;;2.97;1.80;;;8.70;77.60;9.00;96916.00;;;;5050201;28;20221;-84
2022/01/20 09:53:07;;;;;;;2.17;2.03;;;8.80;77.60;9.10;96918.00;;;;5052285;28;20253;-82
2022/01/20 09:55:40;;;;;;;2.00;1.77;;;9.00;77.60;9.20;96918.00;;;;5051478;28;20693;-82
2022/01/20 09:58:08;;;;;;;2.30;2.10;;;9.10;77.20;9.20;96924.00;;;;5051987;28;20569;-82
2022/01/20 10:00:36;;;;;;;2.70;2.10;;;9.20;76.90;9.30;96922.00;;;;5050116;28;20245;-82
2022/01/20 10:03:09;;;;;;;2.30;1.73;;;9.20;76.50;9.30;96921.00;;;;5050068;28;20915;-82
2022/01/20 10:05:39;;;;;;;2.20;2.00;;;9.30;76.00;9.30;96929.00;;;;5051330;28;20201;-85
2022/01/20 10:08:13;;;;;;;1.80;1.70;;;9.30;75.60;9.30;96917.00;;;;5050552;28;20193;-84
2022/01/20 10:10:49;;;;;;;2.07;1.50;;;9.30;75.30;9.30;96916.00;;;;5047941;28;20225;-85
2022/01/20 10:13:20;;;;;;;2.77;1.80;;;9.30;74.90;9.30;96923.00;;;;5047460;28;20192;-84
2022/01/20 10:16:03;;;;;;;2.40;1.70;;;9.30;74.80;9.30;96928.00;;;;5051655;28;20217;-85
2022/01/20 10:18:32;;;;;;;1.80;1.70;;;9.30;74.10;9.30;96918.00;;;;5051250;28;20262;-83
2022/01/20 10:21:04;;;;;;;2.97;1.70;;;9.30;74.20;9.20;96909.00;;;;5052311;28;20319;-82
2022/01/20 10:23:37;;;;;;;2.73;1.83;;;9.30;74.20;9.20;96924.00;;;;5052383;28;20192;-82
2022/01/20 10:26:12;;;;;;;2.63;1.47;;;9.20;74.30;9.20;96930.00;;;;5052683;28;20228;-82
2022/01/20 10:29:02;;;;;;;2.77;2.00;;;9.20;74.30;9.20;96931.00;;;;5049278;28;20194;-83
2022/01/20 10:31:40;;;;;;;1.70;1.60;;;9.20;73.60;9.20;96938.00;;;;5050648;28;20293;-82
2022/01/20 10:34:19;;;;;;;2.23;1.70;;;9.20;74.40;9.20;96942.00;;;;5053511;28;20193;-81
2022/01/20 10:36:55;;;;;;;5.77;1.87;;;9.20;74.50;9.30;96954.00;;;;5053207;28;20700;-83
2022/01/20 10:39:30;;;;;;;2.77;1.70;;;9.20;74.40;9.30;96944.00;;;;5045818;28;20181;-81
2022/01/20 10:42:00;;;;;;;2.13;1.80;;;9.20;74.10;9.30;96939.00;;;;5053412;28;20218;-82
2022/01/20 10:44:28;;;;;;;2.70;1.50;;;9.20;73.80;9.30;96938.00;;;;5049639;28;20193;-84
2022/01/20 10:46:58;;;;;;;2.07;1.50;;;9.20;74.30;9.30;96934.00;;;;5050214;28;20573;-84
2022/01/20 10:49:32;;;;;;;2.57;1.80;;;9.20;74.30;9.30;96915.00;;;;5052490;28;20201;-82
2022/01/20 10:52:05;;;;;;;2.83;2.00;;;9.20;74.30;9.30;96903.00;;;;5056133;28;20701;-83
2022/01/20 10:54:41;;;;;;;2.20;1.60;;;9.20;74.20;9.30;96907.00;;;;5048970;28;20457;-84
2022/01/20 10:57:11;;;;;;;2.90;1.70;;;9.20;73.50;9.30;96906.00;;;;5049230;28;20340;-84
2022/01/20 10:59:51;;;;;;;2.30;1.90;;;9.20;73.60;9.20;96892.00;;;;5053647;28;20197;-84
2022/01/20 11:02:21;;;;;;;1.83;1.60;;;9.20;73.20;9.20;96889.00;;;;5048239;28;20757;-84
2022/01/20 11:04:50;;;;;;;3.33;1.70;;;9.20;73.40;9.20;96900.00;;;;5049120;28;20212;-84
2022/01/20 11:07:17;;;;;;;1.80;1.23;;;9.20;73.20;9.30;96882.00;;;;5048913;28;20205;-84
2022/01/20 11:09:50;;;;;;;2.47;1.37;;;9.30;74.00;9.40;96892.00;;;;5049035;28;20209;-85
2022/01/20 11:12:19;;;;;;;1.70;1.60;;;9.30;74.30;9.50;96879.00;;;;5048627;28;20227;-84
2022/01/20 11:14:51;;;;;;;1.60;1.20;;;9.30;73.70;9.50;96878.00;;;;5047423;28;20291;-84
2022/01/20 11:17:20;;;;;;;1.40;1.30;;;9.40;73.60;9.60;96884.00;;;;5050076;28;20239;-84
2022/01/20 11:19:47;;;;;;;2.37;1.40;;;9.40;73.80;9.60;96882.00;;;;5050064;28;20201;-83
2022/01/20 11:22:16;;;;;;;1.63;1.53;;;9.50;73.60;9.70;96877.00;;;;5046357;28;21817;-85
2022/01/20 11:24:45;;;;;;;2.60;1.40;;;9.50;72.50;9.80;96856.00;;;;5048700;28;20193;-84
2022/01/20 11:27:15;;;;;;;1.30;1.20;;;9.60;72.80;9.80;96869.00;;;;5049634;28;20220;-85
2022/01/20 11:29:47;;;;;;;1.50;1.40;;;9.70;72.70;9.90;96875.00;;;;5049386;28;20213;-85
2022/01/20 11:32:23;;;;;;;1.37;1.23;;;9.70;72.90;9.90;96872.00;;;;5049611;28;20218;-85
2022/01/20 11:35:01;;;;;;;1.47;1.37;;;9.70;72.60;9.80;96858.00;;;;5049401;28;20192;-83
2022/01/20 11:37:35;;;;;;;1.43;1.30;;;9.70;72.40;9.80;96868.00;;;;5049906;28;20295;-84
2022/01/20 11:40:17;;;;;;;1.43;1.33;;;9.80;72.40;9.90;96867.00;;;;5048806;28;20196;-83
2022/01/20 11:42:58;;;;;;;2.23;1.43;;;9.80;72.50;9.90;96866.00;;;;5048741;28;20204;-84
2022/01/20 11:45:33;;;;;;;1.60;1.10;;;9.80;73.20;9.90;96871.00;;;;5049488;28;20188;-84
2022/01/20 11:48:12;;;;;;;2.27;1.20;;;9.80;72.30;10.00;96852.00;;;;5048381;28;20262;-85
2022/01/20 11:50:39;;;;;;;2.03;1.33;;;9.80;72.40;10.00;96850.00;;;;5049483;28;20220;-83
2022/01/20 11:53:12;;;;;;;2.80;1.33;;;9.80;72.60;9.90;96860.00;;;;5048353;28;20207;-84
2022/01/20 11:55:48;;;;;;;2.63;1.70;;;9.80;71.70;9.80;96851.00;;;;5049194;28;20200;-85
2022/01/20 11:58:19;;;;;;;1.87;1.33;;;9.80;71.50;9.70;96846.00;;;;5046142;28;20196;-83
2022/01/20 12:01:00;;;;;;;1.43;1.27;;;10.20;71.90;9.60;96859.00;;;;5048077;28;20263;-83
2022/01/20 12:03:27;;;;;;;1.30;1.20;;;9.70;71.80;9.50;96843.00;;;;5049790;28;20192;-84
2022/01/20 12:06:00;;;;;;;1.77;1.20;;;9.50;72.00;9.40;96850.00;;;;5050850;28;20295;-83
2022/01/20 12:08:28;;;;;;;2.23;1.50;;;9.50;72.20;9.30;96854.00;;;;5050610;28;20246;-84
2022/01/20 12:11:02;;;;;;;3.93;1.40;;;9.40;72.30;9.20;96857.00;;;;5048965;28;20602;-84
2022/01/20 12:13:30;;;;;;;1.63;1.23;;;9.30;72.60;9.10;96840.00;;;;5048251;28;20193;-84
2022/01/20 12:16:00;;;;;;;1.73;1.20;;;9.20;72.80;9.10;96839.00;;;;5047775;28;20256;-83
2022/01/20 12:18:27;;;;;;;1.33;1.23;;;9.10;73.00;9.00;96838.00;;;;5050282;28;20274;-83